Time;durP1;ratioP1;P1;durP2;ratioP2;P2;SDS_P1;SDS_P2;PMS_P1;PMS_P2;Temp;Humidity;BMP_temperature;BMP_pressure;BME280_temperature;BME280_humidity;BME280_pressure;Samples;Min_cycle;Max_cycle;Signal;HPM_P1;HPM_P2
2024/02/17 00:01:06;;;;;;;4.57;1.92;;;;;;;18.82;50.95;102350.56;4998442;28;20069;-70
2024/02/17 00:03:31;;;;;;;4.60;1.80;;;;;;;18.83;50.98;102351.41;4998222;28;20137;-69
2024/02/17 00:05:57;;;;;;;4.95;1.90;;;;;;;18.81;50.98;102362.06;4998527;28;20026;-70
2024/02/17 00:08:22;;;;;;;5.10;1.83;;;;;;;18.83;50.78;102364.59;5000136;28;20085;-69
2024/02/17 00:10:47;;;;;;;3.97;2.00;;;;;;;18.82;50.80;102369.06;4998881;28;20263;-71
2024/02/17 00:13:12;;;;;;;4.75;2.00;;;;;;;18.87;50.81;102379.38;4997449;28;20464;-69
2024/02/17 00:15:39;;;;;;;4.15;1.92;;;;;;;18.76;50.69;102364.13;4999013;28;20762;-70
2024/02/17 00:18:05;;;;;;;3.60;1.70;;;;;;;18.79;50.79;102374.50;4999380;28;20511;-71
2024/02/17 00:20:30;;;;;;;4.60;2.00;;;;;;;18.82;50.96;102381.41;4999188;28;20049;-70
2024/02/17 00:22:56;;;;;;;5.53;2.00;;;;;;;18.88;50.59;102394.25;4981081;28;20095;-69
2024/02/17 00:25:21;;;;;;;3.97;2.00;;;;;;;18.73;50.60;102368.75;4999729;28;20030;-69
2024/02/17 00:27:46;;;;;;;5.00;2.30;;;;;;;18.85;50.64;102391.84;4998521;28;20490;-70
2024/02/17 00:30:12;;;;;;;4.40;2.10;;;;;;;18.85;50.47;102400.59;4999612;28;20120;-69
2024/02/17 00:32:37;;;;;;;4.30;2.05;;;;;;;18.76;50.42;102382.63;4999748;28;20088;-69
2024/02/17 00:35:03;;;;;;;4.47;2.30;;;;;;;18.79;50.54;102393.00;4998643;28;20183;-70
2024/02/17 00:37:29;;;;;;;4.47;2.05;;;;;;;18.73;50.53;102379.31;4981448;28;20110;-70
2024/02/17 00:39:54;;;;;;;6.10;2.50;;;;;;;18.62;50.36;102362.31;4981087;28;20537;-70
2024/02/17 00:42:19;;;;;;;4.90;2.47;;;;;;;18.70;50.62;102382.13;4998446;28;20596;-70
2024/02/17 00:44:44;;;;;;;6.32;2.40;;;;;;;18.58;50.44;102363.44;4999715;28;20034;-69
2024/02/17 00:47:10;;;;;;;5.38;2.55;;;;;;;18.77;50.50;102396.66;4998849;28;20587;-70
2024/02/17 00:49:35;;;;;;;6.05;2.30;;;;;;;18.76;50.21;102408.19;4999687;28;20041;-69
2024/02/17 00:52:00;;;;;;;4.45;2.20;;;;;;;18.61;50.17;102386.16;4998506;28;20555;-70
2024/02/17 00:54:26;;;;;;;5.13;2.70;;;;;;;18.65;50.42;102398.25;4998179;28;20033;-69
2024/02/17 00:56:51;;;;;;;5.40;2.20;;;;;;;18.63;50.21;102394.88;4999261;28;20294;-70
2024/02/17 00:59:17;;;;;;;5.05;2.50;;;;;;;18.73;49.99;102417.13;4999215;28;20779;-70
2024/02/17 01:01:43;;;;;;;4.90;2.30;;;;;;;18.66;50.06;102411.38;4996040;28;20503;-70
2024/02/17 01:04:08;;;;;;;5.47;2.53;;;;;;;18.61;50.21;102399.38;4998660;28;20084;-69
2024/02/17 01:06:34;;;;;;;6.72;2.70;;;;;;;18.64;50.34;102399.19;4981685;28;20033;-70
2024/02/17 01:08:59;;;;;;;6.15;2.35;;;;;;;18.63;50.32;102400.16;4998533;28;20030;-69
2024/02/17 01:11:24;;;;;;;4.78;2.40;;;;;;;18.48;50.05;102379.00;4999260;28;20545;-69
2024/02/17 01:13:50;;;;;;;5.07;2.40;;;;;;;18.72;50.11;102423.34;4999146;28;20283;-70
2024/02/17 01:16:15;;;;;;;5.68;2.65;;;;;;;18.57;50.08;102403.97;4998171;28;20136;-69
2024/02/17 01:18:40;;;;;;;5.07;2.50;;;;;;;18.68;50.31;102425.31;4999197;28;20644;-69
2024/02/17 01:21:06;;;;;;;5.20;2.80;;;;;;;18.65;49.93;102414.94;4998847;28;20145;-69
2024/02/17 01:23:31;;;;;;;6.32;3.25;;;;;;;18.70;50.06;102421.75;4997876;28;20034;-71
2024/02/17 01:25:56;;;;;;;6.32;2.80;;;;;;;18.53;50.14;102396.31;4998970;28;20034;-70
2024/02/17 01:28:22;;;;;;;4.88;2.47;;;;;;;18.58;50.13;102410.09;4998844;28;20475;-71
2024/02/17 01:30:47;;;;;;;5.05;2.72;;;;;;;18.55;50.13;102405.88;4996897;28;20057;-71
2024/02/17 01:33:12;;;;;;;5.00;2.20;;;;;;;18.55;50.16;102405.88;4998766;28;20030;-72
2024/02/17 01:35:38;;;;;;;4.88;2.75;;;;;;;18.60;49.84;102424.09;4998028;28;20063;-70
2024/02/17 01:38:07;;;;;;;6.60;2.85;;;;;;;18.56;49.94;102407.56;4998772;28;20034;-71
2024/02/17 01:40:32;;;;;;;5.88;2.78;;;;;;;18.60;50.03;102426.72;4998861;28;20123;-72
2024/02/17 01:42:57;;;;;;;5.60;2.50;;;;;;;18.56;49.73;102422.56;4980965;28;20034;-70
2024/02/17 01:45:23;;;;;;;7.45;3.13;;;;;;;18.55;49.99;102434.03;4998695;28;20041;-71
2024/02/17 01:47:48;;;;;;;5.93;3.00;;;;;;;18.48;50.00;102421.22;4998212;28;20034;-71
2024/02/17 01:50:14;;;;;;;6.55;2.67;;;;;;;18.49;50.03;102419.44;4997562;28;20040;-71
2024/02/17 01:52:41;;;;;;;5.20;3.00;;;;;;;18.54;49.99;102432.38;5000139;28;20475;-71
2024/02/17 01:55:07;;;;;;;6.10;3.03;;;;;;;18.58;49.82;102441.78;5001603;28;20030;-70
2024/02/17 01:57:33;;;;;;;5.18;2.60;;;;;;;18.59;49.85;102440.84;4984304;28;20483;-70
2024/02/17 01:59:58;;;;;;;6.60;2.60;;;;;;;18.51;49.88;102436.03;5001221;28;20128;-70
2024/02/17 02:02:23;;;;;;;5.95;2.70;;;;;;;18.40;50.03;102425.22;5001057;28;20044;-70
2024/02/17 02:04:49;;;;;;;5.93;2.85;;;;;;;18.52;49.94;102444.78;5000627;28;20081;-70
2024/02/17 02:07:15;;;;;;;5.85;3.05;;;;;;;18.57;49.92;102463.88;5002261;28;20040;-70
2024/02/17 02:09:40;;;;;;;4.93;2.90;;;;;;;18.39;49.81;102437.59;5001588;28;20398;-70
2024/02/17 02:12:05;;;;;;;6.82;2.83;;;;;;;18.47;49.99;102453.84;5000849;28;20038;-70
2024/02/17 02:14:31;;;;;;;6.07;2.97;;;;;;;18.57;50.05;102475.28;5001666;28;20432;-70
2024/02/17 02:16:57;;;;;;;5.45;2.65;;;;;;;18.55;49.92;102469.25;5001779;28;20050;-70
2024/02/17 02:19:22;;;;;;;6.18;2.75;;;;;;;18.50;49.73;102468.66;4999609;28;20038;-71
2024/02/17 02:21:48;;;;;;;6.35;2.80;;;;;;;18.42;49.87;102461.19;4999959;28;20030;-71
2024/02/17 02:24:13;;;;;;;5.85;2.90;;;;;;;18.47;49.86;102469.66;5001551;28;20506;-70
2024/02/17 02:26:38;;;;;;;6.40;3.28;;;;;;;18.55;49.87;102489.50;5000713;28;20104;-71
2024/02/17 02:29:04;;;;;;;6.35;2.90;;;;;;;18.49;49.95;102488.06;5001125;28;20034;-71
2024/02/17 02:31:29;;;;;;;6.90;2.97;;;;;;;18.41;49.70;102483.22;5001437;28;20117;-71
2024/02/17 02:33:56;;;;;;;4.97;2.78;;;;;;;18.54;49.85;102501.00;5000501;28;20034;-70
2024/02/17 02:36:22;;;;;;;5.32;2.42;;;;;;;18.46;49.73;102490.88;5002188;28;20037;-70
2024/02/17 02:38:47;;;;;;;6.45;2.90;;;;;;;18.42;49.48;102484.94;5000636;28;20088;-70
2024/02/17 02:41:13;;;;;;;6.70;3.35;;;;;;;18.40;49.87;102489.41;5000857;28;20458;-71
2024/02/17 02:43:38;;;;;;;6.35;3.20;;;;;;;18.43;49.82;102496.34;5001540;28;20034;-70
2024/02/17 02:46:04;;;;;;;5.82;2.88;;;;;;;18.48;49.90;102515.41;4983568;28;20115;-71
2024/02/17 02:48:29;;;;;;;4.60;2.78;;;;;;;18.44;49.93;102512.09;5000356;28;20041;-70
2024/02/17 02:50:54;;;;;;;5.82;2.70;;;;;;;18.45;49.76;102515.56;5000958;28;20040;-71
2024/02/17 02:53:20;;;;;;;6.78;2.67;;;;;;;18.36;50.06;102500.25;5001415;28;20037;-71
2024/02/17 02:55:46;;;;;;;5.03;2.42;;;;;;;18.46;49.82;102510.19;4982325;28;20674;-71
2024/02/17 02:58:11;;;;;;;6.68;2.95;;;;;;;18.47;49.85;102526.91;5000746;28;20041;-70
2024/02/17 03:00:37;;;;;;;5.75;3.45;;;;;;;18.47;49.62;102529.56;4983121;28;20042;-72
2024/02/17 03:03:02;;;;;;;6.68;2.70;;;;;;;18.41;49.77;102517.53;4997884;28;20034;-71
2024/02/17 03:05:28;;;;;;;5.38;2.47;;;;;;;18.39;49.74;102522.06;5000623;28;20029;-70
2024/02/17 03:07:53;;;;;;;5.50;2.97;;;;;;;18.40;49.84;102522.91;4999721;28;20193;-71
2024/02/17 03:10:21;;;;;;;6.05;2.67;;;;;;;18.42;49.57;102532.44;5001238;28;20065;-70
2024/02/17 03:12:46;;;;;;;6.53;2.88;;;;;;;18.35;49.85;102517.88;5000874;28;20557;-71
2024/02/17 03:15:11;;;;;;;7.55;2.70;;;;;;;18.36;49.63;102526.63;4999973;28;20049;-70
2024/02/17 03:17:37;;;;;;;6.00;2.65;;;;;;;18.29;49.22;102518.22;5000269;28;20030;-71
2024/02/17 03:20:04;;;;;;;5.20;2.58;;;;;;;18.41;49.58;102538.66;5000453;28;20069;-70
2024/02/17 03:22:30;;;;;;;6.30;2.63;;;;;;;18.28;49.55;102524.44;4999448;28;20037;-70
2024/02/17 03:24:55;;;;;;;5.63;3.00;;;;;;;18.30;49.90;102528.69;5000303;28;20041;-71
2024/02/17 03:27:21;;;;;;;6.28;2.65;;;;;;;18.34;49.82;102539.06;5000927;28;20041;-69
2024/02/17 03:29:46;;;;;;;5.45;2.60;;;;;;;18.41;49.54;102551.84;4999782;28;20030;-69
2024/02/17 03:32:12;;;;;;;5.28;2.55;;;;;;;18.41;49.67;102551.00;5000280;28;20030;-69
2024/02/17 03:34:38;;;;;;;7.03;2.70;;;;;;;18.31;49.58;102542.75;4999779;28;20030;-70
2024/02/17 03:37:04;;;;;;;5.60;2.70;;;;;;;18.43;49.66;102572.88;4999516;28;20037;-70
2024/02/17 03:39:29;;;;;;;7.25;2.63;;;;;;;18.38;49.89;102559.94;4999984;28;20049;-70
2024/02/17 03:41:55;;;;;;;6.65;3.10;;;;;;;18.29;49.75;102550.75;5000174;28;20463;-69
2024/02/17 03:44:20;;;;;;;5.57;2.40;;;;;;;18.25;49.66;102551.00;4980924;28;20490;-69
2024/02/17 03:46:46;;;;;;;5.05;2.30;;;;;;;18.28;49.56;102561.41;5000125;28;20033;-70
2024/02/17 03:49:11;;;;;;;5.03;2.30;;;;;;;18.22;49.68;102551.16;5000579;28;20034;-69
2024/02/17 03:51:37;;;;;;;6.38;2.50;;;;;;;18.40;49.50;102579.19;4981286;28;20037;-69
2024/02/17 03:54:02;;;;;;;5.47;2.47;;;;;;;18.28;49.51;102567.50;4982226;28;20085;-71
2024/02/17 03:56:28;;;;;;;5.05;2.28;;;;;;;18.39;49.49;102585.41;5000527;28;20195;-70
2024/02/17 03:58:53;;;;;;;5.20;2.20;;;;;;;18.36;49.79;102584.69;4999122;28;20062;-70
2024/02/17 04:01:20;;;;;;;6.20;2.40;;;;;;;18.25;49.69;102569.47;5000251;28;20121;-69
2024/02/17 04:03:45;;;;;;;6.47;2.20;;;;;;;18.22;49.73;102569.66;4997701;28;20038;-71
2024/02/17 04:06:11;;;;;;;5.95;2.42;;;;;;;18.26;49.61;102579.94;4999181;28;20030;-70
2024/02/17 04:08:36;;;;;;;5.00;2.03;;;;;;;18.34;49.38;102594.50;5000465;28;20092;-69
2024/02/17 04:11:01;;;;;;;5.55;2.30;;;;;;;18.33;49.62;102600.75;4998861;28;20022;-71
2024/02/17 04:13:27;;;;;;;4.68;2.15;;;;;;;18.22;49.38;102575.75;4999806;28;20037;-69
2024/02/17 04:15:52;;;;;;;5.75;2.90;;;;;;;18.31;49.46;102593.75;4998150;28;20056;-70
2024/02/17 04:18:18;;;;;;;5.60;2.22;;;;;;;18.25;49.50;102585.31;4999017;28;20570;-70
2024/02/17 04:20:43;;;;;;;5.72;2.00;;;;;;;18.26;49.41;102598.44;4999595;28;20557;-71
2024/02/17 04:23:09;;;;;;;4.75;2.22;;;;;;;18.23;49.51;102593.31;4982094;28;20026;-70
2024/02/17 04:25:37;;;;;;;5.32;2.20;;;;;;;18.18;49.76;102590.03;4998429;28;20072;-70
2024/02/17 04:28:05;;;;;;;4.90;2.10;;;;;;;18.29;49.50;102615.88;4998967;28;20037;-70
2024/02/17 04:30:31;;;;;;;6.32;2.22;;;;;;;18.31;49.53;102621.94;4999084;28;20080;-70
2024/02/17 04:32:58;;;;;;;6.05;2.15;;;;;;;18.16;49.41;102602.47;4998998;28;20119;-69
2024/02/17 04:35:23;;;;;;;6.85;2.20;;;;;;;18.16;49.75;102602.47;4999799;28;20037;-70
2024/02/17 04:37:48;;;;;;;5.82;1.88;;;;;;;18.18;49.64;102610.31;4998607;28;20131;-70
2024/02/17 04:40:14;;;;;;;4.88;2.00;;;;;;;18.29;49.47;102627.28;4998987;28;20026;-70
2024/02/17 04:42:40;;;;;;;5.82;1.92;;;;;;;18.29;49.42;102631.69;4999659;28;20125;-70
2024/02/17 04:45:06;;;;;;;5.03;1.92;;;;;;;18.15;49.43;102615.75;4999083;28;20480;-70
2024/02/17 04:47:32;;;;;;;4.20;1.90;;;;;;;18.24;49.67;102629.31;4998634;28;20517;-70
2024/02/17 04:49:57;;;;;;;5.78;2.22;;;;;;;18.12;49.74;102611.50;4999608;28;20026;-70
2024/02/17 04:52:22;;;;;;;6.30;1.90;;;;;;;18.16;49.68;102622.75;4981387;28;20544;-69
2024/02/17 04:54:48;;;;;;;5.15;1.80;;;;;;;18.15;49.57;102626.31;4998135;28;20038;-69
2024/02/17 04:57:13;;;;;;;5.97;1.90;;;;;;;18.19;49.59;102631.34;4998773;28;20037;-70
2024/02/17 04:59:38;;;;;;;4.57;1.75;;;;;;;18.23;49.73;102637.31;4999153;28;20656;-70
2024/02/17 05:02:04;;;;;;;4.73;1.73;;;;;;;18.25;49.57;102649.50;4997118;28;20025;-69
2024/02/17 05:04:29;;;;;;;4.65;1.63;;;;;;;18.25;49.50;102653.94;4998750;28;20275;-69
2024/02/17 05:06:55;;;;;;;3.92;1.73;;;;;;;18.21;49.46;102649.75;4998588;28;20034;-69
2024/02/17 05:09:20;;;;;;;4.35;1.60;;;;;;;18.13;49.52;102647.50;4998080;28;20052;-69
2024/02/17 05:11:46;;;;;;;3.60;1.50;;;;;;;18.05;49.68;102632.06;4998578;28;20854;-69
2024/02/17 05:14:15;;;;;;;4.15;1.55;;;;;;;18.15;49.64;102653.56;4999403;28;20026;-70
2024/02/17 05:16:43;;;;;;;5.20;1.60;;;;;;;18.18;49.43;102661.28;4980568;28;20046;-69
2024/02/17 05:19:10;;;;;;;5.50;1.88;;;;;;;18.12;49.60;102657.22;4999278;28;20034;-70
2024/02/17 05:21:35;;;;;;;4.72;1.73;;;;;;;18.28;49.65;102685.44;4998223;28;20857;-70
2024/02/17 05:24:00;;;;;;;3.65;1.55;;;;;;;18.23;49.50;102682.16;4981293;28;20609;-71
2024/02/17 05:26:33;;;;;;;4.20;1.60;;;;;;;18.24;49.66;102690.00;4999856;28;20029;-71
2024/02/17 05:28:58;;;;;;;4.85;1.88;;;;;;;18.15;49.55;102681.72;5000926;28;20476;-70
2024/02/17 05:31:27;;;;;;;6.22;1.85;;;;;;;18.25;49.48;102701.44;5002150;28;20050;-70
2024/02/17 05:33:53;;;;;;;4.97;1.85;;;;;;;18.26;49.47;102703.13;5002904;28;20088;-71
2024/02/17 05:36:19;;;;;;;4.70;1.65;;;;;;;18.14;49.59;102691.44;5002115;28;20485;-70
2024/02/17 05:38:44;;;;;;;4.20;1.55;;;;;;;18.09;49.67;102696.94;4998357;28;20142;-70
2024/02/17 05:41:09;;;;;;;3.80;1.70;;;;;;;18.16;49.29;102707.19;5001592;28;20048;-70
2024/02/17 05:43:35;;;;;;;4.85;1.60;;;;;;;18.15;49.49;102700.19;5001449;28;20459;-70
2024/02/17 05:46:00;;;;;;;4.60;1.60;;;;;;;18.08;49.41;102686.47;5000670;28;20131;-71
2024/02/17 05:48:25;;;;;;;5.57;1.70;;;;;;;18.20;49.58;102719.28;5001400;28;20569;-70
2024/02/17 05:50:53;;;;;;;3.78;1.50;;;;;;;18.15;49.34;102713.38;5000538;28;20034;-71
2024/02/17 05:53:19;;;;;;;3.78;1.60;;;;;;;18.06;49.29;102698.91;5002406;28;20030;-70
2024/02/17 05:55:45;;;;;;;5.00;1.63;;;;;;;18.15;49.27;102716.91;5002371;28;20492;-71
2024/02/17 05:58:11;;;;;;;4.90;1.83;;;;;;;18.17;49.36;102725.59;5000335;28;20127;-70
2024/02/17 06:00:39;;;;;;;3.90;1.50;;;;;;;18.09;49.65;102718.06;4984580;28;20145;-70
2024/02/17 06:03:04;;;;;;;5.85;1.70;;;;;;;18.05;49.33;102716.50;4982673;28;20045;-70
2024/02/17 06:05:32;;;;;;;5.13;2.08;;;;;;;18.15;49.22;102734.50;5001201;28;20030;-70
2024/02/17 06:07:57;;;;;;;4.28;1.45;;;;;;;18.10;49.38;102724.19;5001976;28;20034;-71
2024/02/17 06:10:23;;;;;;;6.38;1.70;;;;;;;18.15;49.41;102737.13;5001381;28;20026;-70
2024/02/17 06:12:49;;;;;;;4.88;1.60;;;;;;;18.13;49.50;102740.72;5000637;28;20531;-71
2024/02/17 06:15:14;;;;;;;6.13;1.85;;;;;;;18.21;49.18;102755.28;5002027;28;20538;-70
2024/02/17 06:17:42;;;;;;;3.80;1.33;;;;;;;18.04;49.44;102730.63;5001164;28;20423;-71
2024/02/17 06:22:54;;;;;;;5.80;1.33;;;;;;;17.99;49.53;102729.16;5001423;28;20092;-70
2024/02/17 06:25:20;;;;;;;3.22;1.20;;;;;;;18.17;49.75;102753.78;5001401;28;20438;-70
2024/02/17 06:27:45;;;;;;;3.35;1.15;;;;;;;18.13;49.51;102745.13;4983603;28;20727;-69
2024/02/17 06:30:13;;;;;;;3.10;1.00;;;;;;;18.24;49.62;102768.34;5001341;28;20038;-70
2024/02/17 06:32:39;;;;;;;2.92;1.10;;;;;;;18.27;50.10;102773.47;5000986;28;20340;-70
2024/02/17 06:35:05;;;;;;;4.63;1.10;;;;;;;18.16;50.21;102758.16;5001379;28;20033;-70
2024/02/17 06:37:30;;;;;;;2.97;1.13;;;;;;;18.17;49.91;102749.34;5001202;28;20038;-70
2024/02/17 06:39:55;;;;;;;3.88;1.10;;;;;;;18.19;49.84;102749.25;5001030;28;20423;-70
2024/02/17 06:42:21;;;;;;;3.75;1.08;;;;;;;18.20;50.04;102753.59;5001325;28;20049;-70
2024/02/17 06:44:46;;;;;;;3.92;1.13;;;;;;;18.13;50.06;102747.78;5001272;28;20131;-70
2024/02/17 06:47:11;;;;;;;3.78;1.20;;;;;;;18.33;49.94;102770.50;5000373;28;20030;-70
2024/02/17 06:49:37;;;;;;;2.92;1.15;;;;;;;18.36;49.83;102780.91;5001468;28;20061;-70
2024/02/17 06:52:02;;;;;;;4.75;1.40;;;;;;;18.34;49.95;102777.50;5000678;28;20040;-70
2024/02/17 06:54:27;;;;;;;3.88;1.20;;;;;;;18.28;49.96;102762.81;5000053;28;20072;-71
2024/02/17 06:56:53;;;;;;;3.42;1.15;;;;;;;18.31;49.94;102764.47;4980660;28;20069;-71
2024/02/17 06:59:18;;;;;;;4.10;1.20;;;;;;;18.41;49.94;102780.69;4998818;28;20041;-71
2024/02/17 07:01:43;;;;;;;4.23;1.23;;;;;;;18.42;49.80;102782.34;4997506;28;20033;-71
2024/02/17 07:04:09;;;;;;;3.65;1.20;;;;;;;18.44;49.95;102799.84;4998553;28;20747;-70
2024/02/17 07:06:34;;;;;;;3.53;1.10;;;;;;;18.45;50.13;102795.41;4982686;28;20030;-70
2024/02/17 07:09:00;;;;;;;4.18;1.35;;;;;;;18.30;49.97;102775.94;4997358;28;20030;-70
2024/02/17 07:11:25;;;;;;;4.28;1.30;;;;;;;18.49;49.89;102816.28;5000320;28;20030;-71
2024/02/17 07:13:50;;;;;;;3.42;1.10;;;;;;;18.40;49.87;102794.78;4998886;28;20034;-71
2024/02/17 07:16:15;;;;;;;3.30;1.10;;;;;;;18.37;49.78;102787.88;4999060;28;20046;-72
2024/02/17 07:18:43;;;;;;;2.90;1.00;;;;;;;18.41;49.91;102807.91;4999263;28;20045;-70
2024/02/17 07:21:09;;;;;;;2.85;1.00;;;;;;;18.47;49.70;102822.59;4998523;28;20033;-70
2024/02/17 07:23:34;;;;;;;3.05;1.20;;;;;;;18.53;49.96;102843.38;4999619;28;20030;-71
2024/02/17 07:26:00;;;;;;;2.95;0.90;;;;;;;18.45;49.59;102824.44;4999734;28;20519;-70
2024/02/17 07:28:26;;;;;;;4.18;1.10;;;;;;;18.47;49.78;102836.66;4999472;28;20044;-70
2024/02/17 07:30:51;;;;;;;3.72;1.23;;;;;;;18.41;49.82;102833.47;4999541;28;20026;-70
2024/02/17 07:33:16;;;;;;;3.83;1.20;;;;;;;18.54;49.51;102868.03;4999049;28;20040;-70
2024/02/17 07:35:44;;;;;;;3.47;1.00;;;;;;;18.56;49.56;102877.56;4997964;28;20037;-71
2024/02/17 07:38:11;;;;;;;3.22;1.13;;;;;;;18.44;49.42;102865.84;4997412;28;20045;-70
2024/02/17 07:40:39;;;;;;;3.00;1.15;;;;;;;18.41;49.75;102860.72;4999540;28;20063;-71
2024/02/17 07:43:05;;;;;;;3.20;1.40;;;;;;;18.56;49.45;102888.13;4998353;28;20048;-71
2024/02/17 07:45:31;;;;;;;4.95;1.20;;;;;;;18.51;49.44;102871.66;4999838;28;20033;-70
2024/02/17 07:47:56;;;;;;;4.18;1.10;;;;;;;18.37;49.20;102864.44;4998684;28;20029;-69
2024/02/17 07:50:22;;;;;;;3.88;1.08;;;;;;;18.46;49.65;102879.81;4999232;28;20033;-70
2024/02/17 07:52:47;;;;;;;4.57;1.40;;;;;;;18.57;49.67;102903.03;4999492;28;20535;-70
2024/02/17 07:55:12;;;;;;;5.20;1.48;;;;;;;18.46;49.57;102893.00;4999338;28;20496;-70
2024/02/17 07:57:38;;;;;;;4.22;1.33;;;;;;;18.44;49.91;102891.41;4997794;28;20033;-70
2024/02/17 08:00:03;;;;;;;4.35;1.40;;;;;;;18.56;49.87;102914.53;4999193;28;20033;-69
2024/02/17 08:02:29;;;;;;;3.60;1.25;;;;;;;18.22;50.17;102862.59;4979809;28;20468;-71
2024/02/17 08:04:56;;;;;;;5.60;1.45;;;;;;;18.56;49.71;102924.25;4997587;28;20026;-72
2024/02/17 08:07:21;;;;;;;3.60;1.60;;;;;;;18.55;49.67;102919.88;4982152;28;20037;-71
2024/02/17 08:09:48;;;;;;;4.10;1.20;;;;;;;18.46;49.78;102905.38;4998686;28;20038;-70
2024/02/17 08:12:13;;;;;;;4.18;1.30;;;;;;;18.46;49.86;102908.00;4998420;28;20034;-70
2024/02/17 08:14:40;;;;;;;3.00;1.30;;;;;;;18.57;50.07;102920.69;4997859;28;20532;-71
2024/02/17 08:17:06;;;;;;;4.65;1.40;;;;;;;18.57;49.83;102933.88;4981291;28;20045;-70
2024/02/17 08:19:32;;;;;;;3.55;1.27;;;;;;;18.42;50.04;102907.31;4998723;28;20044;-71
2024/02/17 08:21:57;;;;;;;4.10;1.20;;;;;;;18.46;50.20;102921.22;4998753;28;20494;-71
2024/02/17 08:24:22;;;;;;;3.25;1.20;;;;;;;18.48;50.24;102928.13;4981578;28;20169;-70
2024/02/17 08:26:48;;;;;;;3.70;1.33;;;;;;;18.45;50.23;102924.78;4998938;28;20041;-77
2024/02/17 08:29:13;;;;;;;4.35;1.40;;;;;;;18.53;50.30;102943.72;4981345;28;20165;-70
2024/02/17 08:31:38;;;;;;;4.60;1.30;;;;;;;18.47;50.33;102938.78;4999009;28;20041;-71
2024/02/17 08:34:04;;;;;;;5.03;1.20;;;;;;;18.43;50.55;102943.31;4998959;28;20497;-70
2024/02/17 08:36:29;;;;;;;3.90;1.50;;;;;;;18.50;50.42;102943.91;4973293;28;20049;-71
2024/02/17 08:38:54;;;;;;;5.32;1.33;;;;;;;18.58;50.35;102960.22;4998319;28;20556;-71
2024/02/17 08:41:21;;;;;;;4.38;1.92;;;;;;;18.55;50.53;102957.72;4999154;28;20034;-70
2024/02/17 08:43:48;;;;;;;5.80;1.40;;;;;;;18.51;50.83;102953.50;4999013;28;20038;-71
2024/02/17 08:46:13;;;;;;;3.63;1.27;;;;;;;18.52;50.57;102963.16;4981405;28;20030;-70
2024/02/17 08:48:38;;;;;;;2.97;1.20;;;;;;;18.51;50.86;102955.31;4999061;28;20191;-71
2024/02/17 08:51:04;;;;;;;3.30;1.30;;;;;;;18.53;50.63;102971.91;4999198;28;20064;-70
2024/02/17 08:53:31;;;;;;;4.68;1.35;;;;;;;18.61;50.66;102981.19;4998026;28;20380;-71
2024/02/17 08:55:56;;;;;;;3.38;1.10;;;;;;;18.54;50.70;102973.63;4998974;28;20564;-70
2024/02/17 08:58:21;;;;;;;3.53;1.20;;;;;;;18.55;50.41;102972.69;4999558;28;20288;-71
2024/02/17 09:00:47;;;;;;;3.10;1.27;;;;;;;18.61;50.67;102980.31;4999376;28;20029;-71
2024/02/17 09:03:12;;;;;;;4.55;1.30;;;;;;;18.44;50.76;102954.75;5001065;28;20487;-71
2024/02/17 09:05:38;;;;;;;4.63;1.30;;;;;;;18.61;50.77;102985.59;5002400;28;20530;-71
2024/02/17 09:08:04;;;;;;;3.17;1.20;;;;;;;18.61;50.68;102988.22;5001093;28;20541;-71
2024/02/17 09:10:29;;;;;;;6.28;1.45;;;;;;;18.44;50.58;102967.97;4984204;28;20033;-72
2024/02/17 09:12:54;;;;;;;3.03;1.20;;;;;;;18.53;50.84;102979.84;4992432;28;20347;-71
2024/02/17 09:15:20;;;;;;;5.18;1.42;;;;;;;18.54;50.76;102981.56;4993383;28;20133;-71
2024/02/17 09:17:46;;;;;;;4.30;1.33;;;;;;;18.65;50.89;103009.13;5000559;28;20036;-71
2024/02/17 09:20:12;;;;;;;5.20;1.55;;;;;;;18.34;50.78;102961.41;5000958;28;20108;-69
2024/02/17 09:22:37;;;;;;;5.07;1.45;;;;;;;18.57;50.66;102998.09;5001145;28;20093;-69
2024/02/17 09:25:03;;;;;;;4.43;1.55;;;;;;;18.51;50.51;102990.47;4984131;28;20039;-72
2024/02/17 09:27:28;;;;;;;4.30;1.50;;;;;;;18.62;50.58;103011.09;5001109;28;20124;-78
2024/02/17 09:29:53;;;;;;;4.28;1.38;;;;;;;18.51;50.66;102992.28;4983631;28;20057;-75
2024/02/17 09:32:19;;;;;;;3.70;1.52;;;;;;;18.62;50.46;103017.22;4983892;28;20041;-79
2024/02/17 09:34:44;;;;;;;6.30;1.73;;;;;;;18.57;50.61;103010.47;5001273;28;20029;-71
2024/02/17 09:37:10;;;;;;;4.78;1.48;;;;;;;18.64;50.56;103025.06;5002165;28;20042;-73
2024/02/17 09:39:39;;;;;;;4.57;1.23;;;;;;;18.56;50.55;103014.03;5001032;28;20029;-72
2024/02/17 09:42:04;;;;;;;4.43;1.80;;;;;;;18.70;50.64;103034.47;5001844;28;20041;-72
2024/02/17 09:44:30;;;;;;;4.07;1.30;;;;;;;18.56;50.50;103020.16;5001116;28;20029;-72
2024/02/17 09:46:56;;;;;;;4.60;1.40;;;;;;;18.60;50.59;103019.09;4983413;28;20554;-74
2024/02/17 09:49:26;;;;;;;3.30;1.48;;;;;;;18.71;50.50;103044.97;5002409;28;20502;-72
2024/02/17 09:51:52;;;;;;;4.72;1.40;;;;;;;18.51;50.64;103005.47;5002326;28;20579;-72
2024/02/17 09:54:21;;;;;;;4.90;1.60;;;;;;;18.71;50.48;103041.44;5002232;28;20034;-72
2024/02/17 09:56:50;;;;;;;4.63;1.55;;;;;;;18.64;50.67;103033.84;5001622;28;20034;-72
2024/02/17 09:59:16;;;;;;;4.47;1.50;;;;;;;18.67;50.45;103030.19;5002438;28;20038;-73
2024/02/17 10:01:41;;;;;;;4.55;1.50;;;;;;;18.61;50.43;103027.84;5001602;28;20056;-73
2024/02/17 10:04:07;;;;;;;4.82;1.58;;;;;;;18.46;50.49;103003.06;5000130;28;20275;-72
2024/02/17 10:06:33;;;;;;;3.90;1.40;;;;;;;18.60;50.55;103023.53;5002290;28;20037;-71
2024/02/17 10:08:59;;;;;;;5.20;1.48;;;;;;;18.55;50.77;103017.59;4999573;28;20042;-74
2024/02/17 10:11:25;;;;;;;5.90;1.33;;;;;;;18.70;50.90;103034.47;4999595;28;20038;-74
2024/02/17 10:13:59;;;;;;;5.30;1.63;;;;;;;18.61;50.52;103020.81;4981109;28;20444;-73
2024/02/17 10:16:25;;;;;;;7.60;1.70;;;;;;;18.57;50.39;103018.38;4999414;28;20573;-70
2024/02/17 10:18:50;;;;;;;4.13;1.70;;;;;;;18.66;50.66;103034.63;4998318;28;20124;-72
2024/02/17 10:21:15;;;;;;;4.10;1.58;;;;;;;18.67;50.79;103035.47;4995002;28;20100;-75
2024/02/17 10:23:41;;;;;;;6.00;1.83;;;;;;;18.51;50.60;103008.97;4999377;28;20070;-70
2024/02/17 10:26:07;;;;;;;5.32;1.77;;;;;;;18.71;50.85;103037.03;4998875;28;20048;-75
2024/02/17 10:28:33;;;;;;;3.65;1.60;;;;;;;18.62;50.87;103022.50;4983191;28;20030;-76
2024/02/17 10:31:01;;;;;;;6.20;1.70;;;;;;;18.63;50.63;103026.00;4979967;28;20482;-75
2024/02/17 10:33:26;;;;;;;6.60;1.70;;;;;;;18.62;50.92;103026.94;5000061;28;20055;-70
2024/02/17 10:35:53;;;;;;;5.43;1.70;;;;;;;18.73;51.00;103043.09;4998784;28;20030;-76
2024/02/17 10:38:21;;;;;;;4.78;1.63;;;;;;;18.63;50.91;103034.78;4999916;28;20034;-73
2024/02/17 10:40:46;;;;;;;4.95;1.65;;;;;;;18.72;50.99;103046.66;4999467;28;20034;-75
2024/02/17 10:43:12;;;;;;;6.93;1.85;;;;;;;18.73;51.07;103052.81;5000476;28;20030;-75
2024/02/17 10:45:37;;;;;;;5.07;1.60;;;;;;;18.67;50.91;103052.19;5000270;28;20112;-76
2024/02/17 10:48:05;;;;;;;5.35;1.90;;;;;;;18.73;51.29;103056.31;4998741;28;20065;-76
2024/02/17 10:50:34;;;;;;;5.35;1.52;;;;;;;18.69;51.37;103052.09;4999705;28;20034;-76
2024/02/17 10:53:11;;;;;;;5.20;2.00;;;;;;;18.68;51.29;103055.69;4998590;28;20037;-75
2024/02/17 10:55:39;;;;;;;5.45;1.95;;;;;;;18.72;51.20;103062.50;4999361;28;20083;-71
2024/02/17 10:58:16;;;;;;;7.22;1.65;;;;;;;18.72;51.30;103069.59;4999703;28;20077;-71
2024/02/17 11:00:47;;;;;;;7.78;2.25;;;;;;;18.72;51.23;103067.78;4999234;28;20065;-76
2024/02/17 11:03:22;;;;;;;4.13;1.65;;;;;;;18.71;51.46;103070.50;4998136;28;20040;-75
2024/02/17 11:05:51;;;;;;;4.95;2.03;;;;;;;18.71;51.37;103073.16;4999484;28;20331;-76
2024/02/17 11:08:18;;;;;;;6.65;1.70;;;;;;;18.67;51.52;103068.03;4999928;28;20026;-73
2024/02/17 11:10:43;;;;;;;5.63;1.60;;;;;;;18.78;51.56;103093.06;4998956;28;20395;-73
2024/02/17 11:13:22;;;;;;;5.93;1.70;;;;;;;18.82;51.47;103113.13;4998908;28;20034;-75
2024/02/17 11:16:17;;;;;;;6.05;1.92;;;;;;;18.78;51.39;103099.19;4997742;28;20058;-74
2024/02/17 11:18:48;;;;;;;5.60;1.88;;;;;;;18.78;51.38;103099.19;4982022;28;20133;-74
2024/02/17 11:21:13;;;;;;;5.15;1.70;;;;;;;18.68;51.43;103090.03;4999519;28;20029;-72